Time;durP1;ratioP1;P1;durP2;ratioP2;P2;SDS_P1;SDS_P2;PMS_P1;PMS_P2;Temp;Humidity;BMP_temperature;BMP_pressure;BME280_temperature;BME280_humidity;BME280_pressure;Samples;Min_cycle;Max_cycle;Signal;HPM_P1;HPM_P2
2023/05/30 00:01:25;;;;;;;;;3.00;3.00;;;;;19.71;40.90;101318.06;4997068;28;45515;-57
2023/05/30 00:03:51;;;;;;;;;3.67;3.33;;;;;19.67;40.38;101304.06;4997197;28;45381;-53
2023/05/30 00:06:16;;;;;;;;;6.00;4.33;;;;;19.69;40.27;101317.31;4997032;28;45381;-58
2023/05/30 00:08:43;;;;;;;;;4.00;4.00;;;;;19.67;40.73;101317.41;4997130;28;45444;-57
2023/05/30 00:11:13;;;;;;;;;3.33;3.33;;;;;19.61;40.29;101317.75;4997136;28;45401;-56
2023/05/30 00:13:39;;;;;;;;;6.00;4.00;;;;;19.58;40.36;101321.44;4996766;28;46072;-58
2023/05/30 00:16:04;;;;;;;;;2.67;2.67;;;;;19.59;40.52;101323.19;4996899;28;45373;-54
2023/05/30 00:18:34;;;;;;;;;3.00;3.00;;;;;19.62;39.90;101317.66;4997151;28;45473;-55
2023/05/30 00:21:05;;;;;;;;;7.33;4.00;;;;;19.64;39.97;101326.44;4996938;28;45568;-58
2023/05/30 00:23:31;;;;;;;;;3.33;3.33;;;;;19.61;40.49;101321.28;4995115;28;45562;-53
2023/05/30 00:25:57;;;;;;;;;3.33;3.33;;;;;19.62;39.54;101320.31;4996668;28;45484;-52
2023/05/30 00:28:23;;;;;;;;;4.00;4.00;;;;;19.54;39.77;101333.28;4996824;28;45487;-54
2023/05/30 00:30:48;;;;;;;;;5.67;4.33;;;;;19.46;39.94;101322.22;4996803;28;45649;-57
2023/05/30 00:33:14;;;;;;;;;4.00;4.00;;;;;19.41;39.97;101326.97;4996468;28;45507;-55
2023/05/30 00:35:39;;;;;;;;;15.67;13.67;;;;;19.38;40.20;101328.03;4996594;28;45535;-53
2023/05/30 00:38:05;;;;;;;;;4.67;4.00;;;;;19.37;40.21;101325.44;4996707;28;45466;-57
2023/05/30 00:40:30;;;;;;;;;6.00;5.00;;;;;19.32;39.81;101316.88;4996656;28;45432;-57
2023/05/30 00:42:55;;;;;;;;;6.00;3.00;;;;;19.26;39.88;101319.91;4996440;28;45470;-53
2023/05/30 00:45:21;;;;;;;;;4.67;4.00;;;;;19.26;39.74;101325.22;4996279;28;45373;-55
2023/05/30 00:47:47;;;;;;;;;5.33;4.00;;;;;19.25;39.47;101324.38;4996690;28;45551;-54
2023/05/30 00:50:15;;;;;;;;;5.00;5.00;;;;;19.13;39.83;101325.13;4996259;28;45358;-55
2023/05/30 00:52:41;;;;;;;;;4.33;4.33;;;;;19.07;40.44;101321.00;4996771;28;46633;-56
2023/05/30 00:55:06;;;;;;;;;4.00;4.00;;;;;19.05;40.27;101312.25;4996019;28;45548;-56
2023/05/30 00:57:33;;;;;;;;;5.33;5.33;;;;;19.09;40.10;101340.44;4996316;28;45504;-56
2023/05/30 01:00:00;;;;;;;;;3.00;3.00;;;;;19.07;40.54;101325.47;4996234;28;45587;-55
2023/05/30 01:02:25;;;;;;;;;3.00;3.00;;;;;19.09;40.29;101340.44;4995867;28;47496;-56
2023/05/30 01:04:51;;;;;;;;;3.33;3.33;;;;;19.03;40.19;101331.94;4996187;28;45393;-56
2023/05/30 01:07:16;;;;;;;;;4.00;4.00;;;;;19.03;40.60;101326.63;4996112;28;48377;-55
2023/05/30 01:09:42;;;;;;;;;6.67;5.67;;;;;19.00;40.79;101326.81;4996209;28;45503;-56
2023/05/30 01:12:07;;;;;;;;;7.00;6.00;;;;;18.98;40.75;101324.22;4995853;28;46517;-56
2023/05/30 01:14:55;;;;;;;;;4.00;4.00;;;;;18.97;41.23;101326.03;4995884;28;45394;-57
2023/05/30 01:17:30;;;;;;;;;5.33;5.00;;;;;18.93;40.89;101315.63;4985615;28;45398;-56
2023/05/30 01:20:07;;;;;;;;;5.67;3.67;;;;;18.95;41.05;101330.59;4995778;28;45582;-56
2023/05/30 01:23:03;;;;;;;;;23.00;19.67;;;;;18.92;41.14;101329.91;4994423;28;45619;-53
2023/05/30 01:25:35;;;;;;;;;4.33;4.33;;;;;18.94;41.03;101331.53;4985031;28;45528;-56
2023/05/30 01:28:15;;;;;;;;;7.00;6.00;;;;;18.96;41.38;101334.09;4994329;28;45492;-52
2023/05/30 01:30:45;;;;;;;;;6.67;5.67;;;;;18.92;40.95;101329.91;4995760;28;45387;-53
2023/05/30 01:33:12;;;;;;;;;4.67;4.67;;;;;18.86;40.91;101327.59;4995567;28;45412;-54
2023/05/30 01:35:37;;;;;;;;;4.00;4.00;;;;;18.81;41.41;101330.53;4995695;28;45540;-55
2023/05/30 01:38:03;;;;;;;;;5.00;5.00;;;;;18.81;41.22;101330.53;4995569;28;45440;-54
2023/05/30 01:40:29;;;;;;;;;5.00;5.00;;;;;18.66;41.66;101326.91;4995540;28;45519;-54
2023/05/30 01:43:21;;;;;;;;;5.67;4.33;;;;;18.58;41.88;101334.50;4995572;28;45471;-55
2023/05/30 01:45:57;;;;;;;;;4.00;4.00;;;;;18.46;42.23;101322.75;4995757;28;45488;-55
2023/05/30 01:48:39;;;;;;;;;5.00;5.00;;;;;18.48;42.47;101327.97;4995610;28;45477;-56
2023/05/30 01:51:12;;;;;;;;;5.00;5.00;;;;;18.47;42.36;101331.59;4995770;28;45510;-56
2023/05/30 01:53:46;;;;;;;;;4.33;4.33;;;;;18.37;42.50;101322.38;4996123;28;45441;-54
2023/05/30 01:56:14;;;;;;;;;3.00;3.00;;;;;18.39;42.36;101317.84;4995453;28;45340;-54
2023/05/30 01:58:40;;;;;;;;;6.67;6.67;;;;;18.49;42.35;101335.88;4995409;28;45362;-55
2023/05/30 02:01:07;;;;;;;;;3.67;3.67;;;;;18.47;42.21;101334.25;4995322;28;45389;-54
2023/05/30 02:03:33;;;;;;;;;5.33;5.33;;;;;18.46;42.48;101330.72;4995381;28;46370;-58
2023/05/30 02:06:00;;;;;;;;;4.33;4.33;;;;;18.51;42.40;101322.44;4996246;28;45554;-54
2023/05/30 02:08:26;;;;;;;;;6.00;6.00;;;;;18.57;42.26;101332.78;4999066;28;45396;-52
2023/05/30 02:10:51;;;;;;;;;7.67;3.67;;;;;18.39;42.44;101326.69;4998626;28;45663;-56
2023/05/30 02:13:16;;;;;;;;;6.67;5.33;;;;;18.39;42.57;101332.00;4998771;28;46443;-56
2023/05/30 02:15:42;;;;;;;;;6.67;6.00;;;;;18.37;42.82;101339.22;4998750;28;45520;-52
2023/05/30 02:18:08;;;;;;;;;5.67;5.00;;;;;18.38;42.93;101340.97;4998402;28;45734;-56
2023/05/30 02:20:33;;;;;;;;;6.33;5.00;;;;;18.35;42.77;101334.94;4998672;28;45675;-56
2023/05/30 02:22:59;;;;;;;;;5.00;5.00;;;;;18.34;43.15;101339.41;4997261;28;45600;-52
2023/05/30 02:25:24;;;;;;;;;4.67;4.67;;;;;18.37;42.77;101341.88;4998504;28;45428;-54
2023/05/30 02:27:50;;;;;;;;;5.00;4.00;;;;;18.36;42.65;101340.19;4998766;28;45371;-50
2023/05/30 02:30:16;;;;;;;;;6.33;5.33;;;;;18.28;42.82;101332.63;4998745;28;45389;-53
2023/05/30 02:32:42;;;;;;;;;5.33;4.33;;;;;18.12;42.92;101298.94;4998474;28;46107;-55
2023/05/30 02:35:08;;;;;;;;;8.33;6.00;;;;;18.32;42.97;101327.97;4992477;28;45421;-52
2023/05/30 02:37:33;;;;;;;;;5.33;5.33;;;;;18.31;43.07;101340.44;4996119;28;45457;-54
2023/05/30 02:39:58;;;;;;;;;8.67;7.00;;;;;18.27;43.11;101333.56;4998350;28;45365;-55
2023/05/30 02:42:24;;;;;;;;;6.33;5.00;;;;;18.22;43.08;101330.31;4997893;28;55658;-55
2023/05/30 02:44:49;;;;;;;;;4.00;4.00;;;;;18.14;43.27;101331.69;4998167;28;45437;-55
2023/05/30 02:47:15;;;;;;;;;7.00;5.00;;;;;18.08;43.41;101335.50;4998227;28;45377;-55
2023/05/30 02:49:40;;;;;;;;;3.33;3.33;;;;;18.09;43.45;101334.59;4998410;28;45551;-55
2023/05/30 02:52:06;;;;;;;;;5.67;5.67;;;;;18.12;43.82;101339.72;4998140;28;45597;-56
2023/05/30 02:54:31;;;;;;;;;7.67;7.00;;;;;18.21;43.30;101341.03;4998547;28;45497;-56
2023/05/30 02:56:57;;;;;;;;;5.00;5.00;;;;;18.07;43.34;101345.31;4998252;28;45428;-49
2023/05/30 02:59:22;;;;;;;;;4.67;4.67;;;;;18.01;43.89;101337.66;4998009;28;45455;-54
2023/05/30 03:01:47;;;;;;;;;4.67;4.67;;;;;18.04;43.48;101337.50;4997752;28;45433;-54
2023/05/30 03:04:13;;;;;;;;;5.33;5.00;;;;;18.10;43.75;101339.81;4997706;28;45451;-51
2023/05/30 03:06:38;;;;;;;;;4.67;4.00;;;;;18.03;43.28;101340.25;4998042;28;45482;-54
2023/05/30 03:09:04;;;;;;;;;5.33;4.67;;;;;17.97;43.68;101349.41;4997936;28;45479;-54
2023/05/30 03:11:29;;;;;;;;;7.67;5.00;;;;;17.87;43.80;101334.91;4997682;28;45441;-57
2023/05/30 03:13:54;;;;;;;;;6.33;6.33;;;;;17.81;43.78;101332.56;4997819;28;45415;-57
2023/05/30 03:16:20;;;;;;;;;7.67;5.00;;;;;17.81;43.96;101338.75;4997891;28;45506;-56
2023/05/30 03:18:45;;;;;;;;;7.00;7.00;;;;;17.80;43.82;101345.00;4996628;28;45535;-54
2023/05/30 03:21:11;;;;;;;;;6.00;6.00;;;;;17.80;43.74;101347.66;4997499;28;46580;-52
2023/05/30 03:23:37;;;;;;;;;8.33;5.67;;;;;17.78;43.89;101346.84;4997654;28;45421;-57
2023/05/30 03:26:06;;;;;;;;;6.00;5.67;;;;;17.81;44.07;101343.19;4997790;28;45444;-54
2023/05/30 03:28:32;;;;;;;;;7.67;5.67;;;;;17.80;43.89;101346.81;4997472;28;45592;-58
2023/05/30 03:30:57;;;;;;;;;5.00;5.00;;;;;17.80;43.64;101344.16;4997374;28;45532;-55
2023/05/30 03:33:23;;;;;;;;;4.00;4.00;;;;;17.75;44.17;101360.31;4997435;28;45392;-55
2023/05/30 03:35:48;;;;;;;;;6.00;6.00;;;;;17.69;44.27;101349.16;4997644;28;45433;-55
2023/05/30 03:38:14;;;;;;;;;5.33;5.33;;;;;17.73;43.78;101348.03;4997565;28;45338;-53
2023/05/30 03:40:39;;;;;;;;;7.33;6.00;;;;;17.62;43.90;101333.53;4997284;28;45429;-56
2023/05/30 03:43:05;;;;;;;;;8.00;5.33;;;;;17.69;43.85;101343.84;4997439;28;45473;-56
2023/05/30 03:45:30;;;;;;;;;6.00;5.00;;;;;17.75;43.86;101349.66;4997444;28;45388;-55
2023/05/30 03:47:56;;;;;;;;;7.67;6.00;;;;;17.66;43.88;101364.34;4997499;28;45540;-57
2023/05/30 03:50:21;;;;;;;;;5.00;4.00;;;;;17.69;43.83;101365.13;4997196;28;46231;-58
2023/05/30 03:52:46;;;;;;;;;4.00;4.00;;;;;17.72;43.71;101371.13;4997396;28;59803;-55
2023/05/30 03:55:12;;;;;;;;;8.00;5.33;;;;;17.76;43.86;101372.69;4997304;28;45459;-58
2023/05/30 03:57:37;;;;;;;;;3.33;3.33;;;;;17.75;43.66;101373.63;4997337;28;45634;-56
2023/05/30 04:00:03;;;;;;;;;5.33;5.00;;;;;17.79;43.49;101372.56;4997138;28;45691;-53
2023/05/30 04:02:28;;;;;;;;;4.00;4.00;;;;;17.70;43.55;101370.34;4996974;28;45400;-56
2023/05/30 04:04:55;;;;;;;;;4.67;4.00;;;;;17.70;43.55;101372.16;4997060;28;49780;-56
2023/05/30 04:07:20;;;;;;;;;4.67;3.67;;;;;17.74;43.57;101374.56;4996950;28;45610;-55
2023/05/30 04:09:46;;;;;;;;;7.00;4.67;;;;;17.67;43.79;101368.69;4996958;28;45393;-54
2023/05/30 04:12:11;;;;;;;;;6.00;5.00;;;;;17.69;43.63;101365.97;4997097;28;45503;-51
2023/05/30 04:14:36;;;;;;;;;5.67;5.33;;;;;17.67;43.65;101360.72;4996903;28;45341;-52
2023/05/30 04:17:02;;;;;;;;;7.33;5.33;;;;;17.72;43.50;101370.28;4996782;28;45405;-53
2023/05/30 04:19:27;;;;;;;;;4.00;4.00;;;;;17.76;43.31;101369.16;4996731;28;45915;-55
2023/05/30 04:21:52;;;;;;;;;5.00;4.00;;;;;17.72;43.14;101364.94;4996588;28;45465;-56
2023/05/30 04:24:18;;;;;;;;;6.00;4.67;;;;;17.66;43.29;101364.34;4996548;28;45506;-57
2023/05/30 04:26:45;;;;;;;;;5.00;5.00;;;;;17.69;43.55;101370.44;4996543;28;50553;-53
2023/05/30 04:29:11;;;;;;;;;4.00;4.00;;;;;17.61;43.32;101376.16;4996228;28;45340;-53
2023/05/30 04:31:36;;;;;;;;;5.33;5.33;;;;;17.61;43.54;101377.00;4996568;28;45446;-56
2023/05/30 04:34:02;;;;;;;;;5.33;5.00;;;;;17.68;43.65;101385.53;4996777;28;45418;-56
2023/05/30 04:36:28;;;;;;;;;5.33;4.33;;;;;17.61;43.34;101386.78;4979062;28;45496;-54
2023/05/30 04:38:53;;;;;;;;;7.33;6.67;;;;;17.63;43.52;101385.78;4995780;28;45460;-55
2023/05/30 04:41:20;;;;;;;;;9.67;8.33;;;;;17.60;43.25;101395.72;4996382;28;45350;-54
2023/05/30 04:43:52;;;;;;;;;4.00;4.00;;;;;17.62;43.41;101401.81;4996547;28;45420;-52
2023/05/30 04:46:21;;;;;;;;;4.67;4.33;;;;;17.59;43.46;101400.16;4978669;28;45440;-57
2023/05/30 04:48:52;;;;;;;;;4.00;4.00;;;;;17.58;43.55;101401.13;4996146;28;47197;-58
2023/05/30 04:51:22;;;;;;;;;6.00;6.00;;;;;17.55;43.44;101406.59;4996269;28;45383;-55
2023/05/30 04:53:48;;;;;;;;;5.67;4.67;;;;;17.51;43.67;101399.69;4996923;28;45543;-54
2023/05/30 04:56:14;;;;;;;;;6.00;6.00;;;;;17.41;43.62;101391.34;4996439;28;45465;-55
2023/05/30 04:58:39;;;;;;;;;5.00;5.00;;;;;17.48;44.01;101399.88;4996062;28;45416;-55
2023/05/30 05:01:05;;;;;;;;;6.33;6.33;;;;;17.39;44.04;101393.22;4995928;28;45544;-59
2023/05/30 05:03:31;;;;;;;;;4.00;4.00;;;;;17.38;43.79;101403.94;4996446;28;45482;-56
2023/05/30 05:05:57;;;;;;;;;5.00;5.00;;;;;17.37;43.92;101402.22;4995829;28;45537;-54
2023/05/30 05:08:22;;;;;;;;;5.33;4.00;;;;;17.36;43.62;101408.50;4995934;28;45777;-58
2023/05/30 05:10:47;;;;;;;;;3.33;3.33;;;;;17.37;43.80;101408.38;4995923;28;45465;-55
2023/05/30 05:13:12;;;;;;;;;5.00;3.67;;;;;17.33;44.02;101408.63;4996156;28;45486;-57
2023/05/30 05:15:38;;;;;;;;;6.67;5.00;;;;;17.22;43.88;101403.84;4996044;28;45590;-52
2023/05/30 05:18:03;;;;;;;;;5.00;5.00;;;;;17.24;43.83;101417.91;4995762;28;46077;-54
2023/05/30 05:20:28;;;;;;;;;3.00;3.00;;;;;17.26;44.32;101423.19;4995819;28;45437;-54
2023/05/30 05:22:55;;;;;;;;;4.33;4.33;;;;;17.28;44.36;101408.88;4995268;28;54261;-54
2023/05/30 05:25:21;;;;;;;;;4.00;4.00;;;;;17.30;43.96;101425.63;4995695;28;45418;-58
2023/05/30 05:27:46;;;;;;;;;6.33;5.00;;;;;17.24;44.23;101404.63;4995495;28;46873;-57
2023/05/30 05:30:12;;;;;;;;;6.00;4.67;;;;;17.38;44.10;101415.44;4995679;28;45515;-57
2023/05/30 05:32:38;;;;;;;;;6.67;6.67;;;;;17.37;44.14;101419.03;4995851;28;45378;-54
2023/05/30 05:35:07;;;;;;;;;4.67;3.67;;;;;17.32;44.15;101421.06;4995667;28;45547;-53
2023/05/30 05:37:32;;;;;;;;;7.00;4.67;;;;;17.28;44.20;101416.84;4995567;28;45452;-57
2023/05/30 05:39:59;;;;;;;;;4.33;4.00;;;;;17.29;44.43;101421.22;4994430;28;45559;-56
2023/05/30 05:42:24;;;;;;;;;6.33;6.33;;;;;17.33;43.93;101421.91;4995293;28;45457;-54
2023/05/30 05:44:50;;;;;;;;;5.67;5.67;;;;;17.30;43.99;101428.28;4995683;28;45390;-53
2023/05/30 05:47:15;;;;;;;;;8.00;6.33;;;;;17.18;44.39;101421.75;4977718;28;47093;-58
2023/05/30 05:49:41;;;;;;;;;6.33;5.33;;;;;17.18;44.31;101419.09;4995550;28;45468;-55
2023/05/30 05:52:06;;;;;;;;;6.33;4.33;;;;;17.25;44.66;101424.97;4995431;28;45453;-56
2023/05/30 05:54:31;;;;;;;;;4.33;3.33;;;;;17.22;44.25;101420.69;4996013;28;45564;-56
2023/05/30 05:56:56;;;;;;;;;5.00;5.00;;;;;17.23;44.08;101424.19;4995452;28;46620;-55
2023/05/30 05:59:22;;;;;;;;;3.33;3.33;;;;;17.22;44.01;101419.78;4995086;28;50104;-55
2023/05/30 06:01:47;;;;;;;;;7.00;5.67;;;;;17.13;44.20;101409.63;4995111;28;45421;-52
2023/05/30 06:04:13;;;;;;;;;7.00;7.00;;;;;17.18;44.24;101419.09;4995288;28;45649;-54
2023/05/30 06:06:38;;;;;;;;;7.00;6.00;;;;;17.19;44.09;101425.25;4994010;28;47986;-52
2023/05/30 06:09:04;;;;;;;;;6.33;6.00;;;;;17.16;44.72;101430.75;4995245;28;45358;-57
2023/05/30 06:11:29;;;;;;;;;6.67;5.00;;;;;17.13;44.86;101428.22;4995578;28;45429;-56
2023/05/30 06:13:55;;;;;;;;;6.67;5.33;;;;;17.19;44.41;101427.91;4995506;28;45382;-54
2023/05/30 06:16:20;;;;;;;;;4.33;4.33;;;;;17.27;44.23;101431.06;4994729;28;46394;-53
2023/05/30 06:18:45;;;;;;;;;5.33;5.33;;;;;17.28;44.49;101430.13;4994841;28;52992;-55
2023/05/30 06:21:11;;;;;;;;;5.67;4.00;;;;;17.33;43.97;101432.53;4994843;28;45928;-51
2023/05/30 06:23:37;;;;;;;;;8.00;5.00;;;;;17.40;43.94;101433.97;4994969;28;45389;-55
2023/05/30 06:26:02;;;;;;;;;7.00;7.00;;;;;17.35;43.82;101436.84;4994742;28;47197;-57
2023/05/30 06:28:28;;;;;;;;;7.00;6.00;;;;;17.37;43.76;101444.75;4995146;28;45464;-54
2023/05/30 06:30:53;;;;;;;;;7.67;6.00;;;;;17.34;44.14;101436.94;4994918;28;45428;-56
2023/05/30 06:33:20;;;;;;;;;7.67;6.00;;;;;17.37;43.99;101428.81;4994950;28;45488;-54
2023/05/30 06:35:45;;;;;;;;;7.00;7.00;;;;;17.38;43.86;101439.38;4994726;28;45531;-54
2023/05/30 06:38:11;;;;;;;;;5.00;5.00;;;;;17.35;44.45;101431.53;4994621;28;45354;-55
2023/05/30 06:40:36;;;;;;;;;6.00;5.33;;;;;17.49;44.12;101437.94;4994948;28;45473;-53
2023/05/30 06:43:02;;;;;;;;;3.00;3.00;;;;;17.47;43.87;101434.53;4994486;28;45570;-55
2023/05/30 06:45:27;;;;;;;;;5.33;5.33;;;;;17.47;43.81;101434.53;4994427;28;45480;-55
2023/05/30 06:47:53;;;;;;;;;8.67;8.67;;;;;17.52;44.03;101429.84;4994408;28;45362;-53
2023/05/30 06:50:18;;;;;;;;;6.33;6.33;;;;;17.54;43.37;101431.44;4994511;28;45922;-55
2023/05/30 06:52:43;;;;;;;;;4.67;4.67;;;;;17.58;43.16;101429.53;4996669;28;45508;-53
2023/05/30 06:55:09;;;;;;;;;8.33;7.67;;;;;17.62;43.33;101433.72;4998595;28;46062;-54
2023/05/30 06:57:38;;;;;;;;;9.00;8.00;;;;;17.69;43.63;101437.81;4997873;28;45588;-57
2023/05/30 07:00:04;;;;;;;;;7.67;6.33;;;;;17.70;43.23;101438.66;4998084;28;45488;-56
2023/05/30 07:02:29;;;;;;;;;8.67;6.00;;;;;17.72;43.16;101442.09;4997545;28;45492;-55
2023/05/30 07:04:54;;;;;;;;;4.33;4.33;;;;;17.73;43.02;101431.41;4997827;28;46362;-55
2023/05/30 07:07:20;;;;;;;;;8.33;5.33;;;;;17.79;42.90;101441.75;4997731;28;45603;-55
2023/05/30 07:09:45;;;;;;;;;6.00;6.00;;;;;17.81;43.18;101441.66;4998329;28;45432;-54
2023/05/30 07:12:11;;;;;;;;;5.67;5.67;;;;;17.85;42.95;101445.88;4998105;28;45558;-54
2023/05/30 07:14:36;;;;;;;;;7.00;7.00;;;;;17.88;42.65;101440.41;4997500;28;45515;-57
2023/05/30 07:17:04;;;;;;;;;5.00;5.00;;;;;17.84;42.56;101438.84;4997779;28;45385;-57
2023/05/30 07:19:30;;;;;;;;;7.33;7.00;;;;;17.87;42.76;101442.19;4997868;28;45433;-52
2023/05/30 07:21:55;;;;;;;;;6.33;6.33;;;;;17.94;42.63;101431.22;4997695;28;45350;-52
2023/05/30 07:24:21;;;;;;;;;6.00;6.00;;;;;18.02;42.63;101451.16;4997127;28;45494;-54
2023/05/30 07:26:46;;;;;;;;;7.00;6.00;;;;;18.08;42.74;101444.66;4997705;28;45393;-54
2023/05/30 07:29:12;;;;;;;;;4.00;4.00;;;;;18.14;42.19;101440.84;4997781;28;45564;-55
2023/05/30 07:31:37;;;;;;;;;5.00;5.00;;;;;18.13;42.30;101441.75;4997521;28;45724;-56
2023/05/30 07:34:02;;;;;;;;;6.33;5.33;;;;;18.00;42.39;101434.44;4997427;28;46444;-51
2023/05/30 07:36:28;;;;;;;;;4.00;4.00;;;;;18.03;42.67;101431.63;4997407;28;45644;-53
2023/05/30 07:38:53;;;;;;;;;7.67;6.33;;;;;18.08;42.56;101436.66;4997082;28;48942;-54
2023/05/30 07:41:18;;;;;;;;;6.00;5.67;;;;;18.05;42.12;101431.50;4997211;28;45590;-52
2023/05/30 07:43:44;;;;;;;;;4.67;3.00;;;;;18.17;42.47;101443.31;4997031;28;50680;-53
2023/05/30 07:46:09;;;;;;;;;5.00;4.00;;;;;18.25;42.52;101436.63;4997333;28;45465;-53
2023/05/30 07:48:34;;;;;;;;;7.00;4.67;;;;;18.25;42.09;101436.63;4997382;28;45527;-54
2023/05/30 07:51:00;;;;;;;;;4.67;4.67;;;;;18.19;42.00;101439.63;4997344;28;45513;-58
2023/05/30 07:53:25;;;;;;;;;5.67;5.67;;;;;18.16;42.20;101445.13;4997451;28;50866;-54
2023/05/30 07:55:50;;;;;;;;;4.00;4.00;;;;;18.19;42.70;101447.63;4996863;28;45512;-56
2023/05/30 07:58:16;;;;;;;;;6.33;6.33;;;;;18.31;42.96;101449.63;4997202;28;45861;-53
2023/05/30 08:00:41;;;;;;;;;7.33;6.67;;;;;18.40;42.63;101458.03;4997010;28;45584;-54
2023/05/30 08:03:07;;;;;;;;;5.33;4.00;;;;;18.41;42.41;101449.97;4996376;28;55545;-59
2023/05/30 08:05:32;;;;;;;;;6.00;4.00;;;;;18.40;42.08;101464.22;4995400;28;45494;-56
2023/05/30 08:07:58;;;;;;;;;5.00;5.00;;;;;18.33;42.22;101458.38;4997357;28;45404;-52
2023/05/30 08:10:23;;;;;;;;;7.00;7.00;;;;;18.32;42.48;101456.69;4997077;28;45377;-54
2023/05/30 08:12:48;;;;;;;;;4.33;4.33;;;;;18.36;43.05;101456.50;4996690;28;46919;-55
2023/05/30 08:15:14;;;;;;;;;4.33;4.00;;;;;18.44;43.24;101465.78;4996912;28;45477;-54
2023/05/30 08:17:40;;;;;;;;;8.00;7.00;;;;;18.48;42.30;101451.38;4996931;28;45362;-52
2023/05/30 08:20:08;;;;;;;;;5.33;5.00;;;;;18.54;42.80;101452.84;4996904;28;45322;-55
2023/05/30 08:22:33;;;;;;;;;7.00;4.00;;;;;18.56;42.27;101458.91;4996489;28;45469;-56
2023/05/30 08:24:59;;;;;;;;;4.67;4.67;;;;;18.55;42.17;101457.22;4996019;28;50247;-54
2023/05/30 08:27:26;;;;;;;;;8.00;5.33;;;;;18.50;42.69;101453.94;4996687;28;45458;-57
2023/05/30 08:29:52;;;;;;;;;5.67;4.67;;;;;18.54;42.52;101458.16;4996618;28;45511;-53
2023/05/30 08:32:17;;;;;;;;;5.33;4.33;;;;;18.60;42.57;101452.50;4996496;28;45595;-53
2023/05/30 08:34:46;;;;;;;;;6.00;6.00;;;;;18.68;42.96;101460.91;4996488;28;45444;-54
2023/05/30 08:37:12;;;;;;;;;6.00;6.00;;;;;18.74;42.67;101451.72;4996644;28;45383;-54
2023/05/30 08:39:37;;;;;;;;;6.33;4.00;;;;;18.70;42.13;101448.38;4996387;28;45397;-51
2023/05/30 08:42:04;;;;;;;;;6.00;6.00;;;;;18.73;42.13;101450.88;4996358;28;47109;-54
2023/05/30 08:44:30;;;;;;;;;6.67;6.67;;;;;18.79;42.08;101455.03;4995059;28;45532;-51
2023/05/30 08:46:56;;;;;;;;;6.67;6.67;;;;;18.81;41.86;101462.94;4996424;28;45394;-54
2023/05/30 08:49:23;;;;;;;;;8.00;5.33;;;;;18.84;42.62;101450.28;4996578;28;45598;-53
2023/05/30 08:51:50;;;;;;;;;8.00;5.33;;;;;18.83;42.31;101451.22;4995724;28;45336;-55
2023/05/30 08:54:19;;;;;;;;;5.00;4.67;;;;;18.85;42.83;101446.69;4996568;28;45293;-54
2023/05/30 08:57:01;;;;;;;;;6.67;5.33;;;;;18.79;42.40;101443.50;4996244;28;45460;-56
2023/05/30 08:59:27;;;;;;;;;9.00;5.00;;;;;18.86;42.78;101447.53;4982464;28;45487;-55
2023/05/30 09:01:55;;;;;;;;;6.67;5.67;;;;;18.85;42.47;101444.00;4993952;28;46378;-55
2023/05/30 09:04:21;;;;;;;;;6.67;6.67;;;;;18.90;42.69;101454.41;4995940;28;45511;-56
2023/05/30 09:06:48;;;;;;;;;8.33;8.33;;;;;18.90;42.89;101441.94;4996334;28;45431;-52
2023/05/30 09:09:14;;;;;;;;;9.67;8.67;;;;;18.97;43.01;101450.47;4996051;28;45468;-54
2023/05/30 09:11:43;;;;;;;;;5.33;5.00;;;;;18.94;42.54;101443.50;4995896;28;47178;-53
2023/05/30 09:14:08;;;;;;;;;5.00;5.00;;;;;19.00;42.42;101438.78;4995723;28;45417;-57
2023/05/30 09:16:34;;;;;;;;;7.67;6.33;;;;;18.98;42.41;101446.84;4995997;28;45350;-55
2023/05/30 09:19:00;;;;;;;;;8.33;5.33;;;;;18.97;42.72;101443.31;4995982;28;45419;-55
2023/05/30 09:21:26;;;;;;;;;5.00;5.00;;;;;18.93;42.93;101438.25;4995630;28;45523;-55
2023/05/30 09:23:51;;;;;;;;;6.00;6.00;;;;;19.01;42.83;101445.81;4977977;28;45461;-61
2023/05/30 09:26:18;;;;;;;;;6.00;5.00;;;;;18.99;42.61;101437.88;4995914;28;45698;-55
2023/05/30 09:28:46;;;;;;;;;4.67;4.67;;;;;19.06;43.06;101444.59;4996152;28;45508;-53
2023/05/30 09:31:11;;;;;;;;;6.00;6.00;;;;;19.03;42.57;101434.13;4995459;28;45499;-54
2023/05/30 09:33:41;;;;;;;;;7.00;7.00;;;;;19.11;42.71;101437.19;4995611;28;45596;-52
2023/05/30 09:36:12;;;;;;;;;6.67;5.33;;;;;19.15;42.79;101435.19;4995704;28;45504;-57
2023/05/30 09:38:37;;;;;;;;;8.00;5.00;;;;;19.21;42.72;101437.53;4982630;28;45556;-52
2023/05/30 09:41:03;;;;;;;;;8.00;6.33;;;;;19.24;42.51;101437.34;4995610;28;45408;-54
2023/05/30 09:43:38;;;;;;;;;4.00;4.00;;;;;19.26;42.45;101437.25;4995308;28;45476;-55
2023/05/30 09:46:05;;;;;;;;;4.67;4.00;;;;;19.25;43.12;101422.19;4995714;28;45508;-55
2023/05/30 09:48:31;;;;;;;;;7.00;7.00;;;;;19.29;43.17;101424.59;4995467;28;45562;-57
2023/05/30 09:51:01;;;;;;;;;12.00;8.00;;;;;19.40;42.94;101432.84;4995465;28;47021;-54
2023/05/30 09:53:32;;;;;;;;;6.00;6.00;;;;;19.40;42.77;101434.66;4995495;28;45421;-57
2023/05/30 09:55:58;;;;;;;;;6.00;5.00;;;;;19.46;42.55;101436.09;4995431;28;45527;-56
2023/05/30 09:58:24;;;;;;;;;7.67;7.00;;;;;19.43;42.65;101434.47;4995486;28;45476;-54
2023/05/30 10:00:53;;;;;;;;;7.00;6.00;;;;;19.52;42.19;101428.56;4994886;28;45709;-56
2023/05/30 10:03:41;;;;;;;;;5.33;5.33;;;;;19.61;42.62;101435.16;4995095;28;45586;-57
2023/05/30 10:06:16;;;;;;;;;8.00;5.67;;;;;19.67;42.68;101437.50;4995105;28;45428;-54
2023/05/30 10:08:44;;;;;;;;;6.00;6.00;;;;;19.73;42.41;101436.28;4993741;28;45588;-53
2023/05/30 10:11:10;;;;;;;;;6.00;6.00;;;;;19.68;42.31;101427.69;4994768;28;46193;-54
2023/05/30 10:13:37;;;;;;;;;6.33;6.33;;;;;19.76;42.44;101439.63;4995145;28;45438;-56
2023/05/30 10:16:04;;;;;;;;;5.33;5.33;;;;;19.81;42.04;101439.34;4995032;28;45410;-57
2023/05/30 10:18:33;;;;;;;;;6.00;6.00;;;;;19.81;41.96;101434.84;4994866;28;45450;-56
2023/05/30 10:21:00;;;;;;;;;6.00;6.00;;;;;19.82;42.57;101430.38;4993249;28;45765;-55
2023/05/30 10:23:26;;;;;;;;;5.33;5.33;;;;;19.83;42.35;101430.28;4994634;28;45429;-52
2023/05/30 10:25:54;;;;;;;;;7.67;5.00;;;;;19.85;41.98;101435.53;4994385;28;45468;-53
2023/05/30 10:28:26;;;;;;;;;9.67;8.67;;;;;19.89;41.81;101430.88;4979732;28;45512;-57
2023/05/30 10:30:52;;;;;;;;;7.00;7.00;;;;;19.92;41.66;101428.00;4997836;28;46247;-53
2023/05/30 10:33:20;;;;;;;;;11.00;7.00;;;;;19.93;41.28;101421.72;4997632;28;45494;-57
2023/05/30 10:35:46;;;;;;;;;5.00;5.00;;;;;20.04;42.61;101436.13;4997970;28;45361;-54
2023/05/30 10:38:13;;;;;;;;;7.33;6.00;;;;;20.03;42.39;101426.38;4997750;28;45473;-55
2023/05/30 10:40:45;;;;;;;;;5.67;5.00;;;;;20.14;42.34;101433.72;4997543;28;46170;-52
2023/05/30 10:43:32;;;;;;;;;7.00;5.67;;;;;20.18;41.63;101432.59;4997436;28;45525;-54
2023/05/30 10:46:00;;;;;;;;;2.33;2.33;;;;;20.20;41.93;101424.47;4984985;28;45495;-56
2023/05/30 10:48:38;;;;;;;;;7.67;5.00;;;;;20.23;41.90;101425.16;4997878;28;45319;-54
2023/05/30 10:51:04;;;;;;;;;7.33;7.33;;;;;20.27;42.09;101415.97;4997654;28;46014;-56
2023/05/30 10:53:42;;;;;;;;;10.00;10.00;;;;;20.28;41.16;101411.50;4996311;28;45492;-55
2023/05/30 10:56:26;;;;;;;;;13.67;12.00;;;;;20.34;41.71;101412.91;4997736;28;45431;-57
2023/05/30 10:58:53;;;;;;;;;8.00;8.00;;;;;20.38;41.70;101417.13;4997607;28;45423;-54
2023/05/30 11:01:22;;;;;;;;;15.33;13.67;;;;;20.42;41.15;101405.28;4997450;28;45512;-55
2023/05/30 11:03:47;;;;;;;;;39.67;34.33;;;;;20.40;41.24;101394.69;4997067;28;45436;-54
2023/05/30 11:06:14;;;;;;;;;48.00;40.00;;;;;20.45;41.28;101394.41;4997411;28;45370;-53
2023/05/30 11:08:40;;;;;;;;;29.00;28.00;;;;;20.48;41.41;101397.72;4997430;28;45521;-57
2023/05/30 11:11:16;;;;;;;;;22.00;20.67;;;;;20.51;41.07;101388.66;4997217;28;45973;-56
2023/05/30 11:13:46;;;;;;;;;22.33;18.67;;;;;20.59;40.84;101394.41;4997083;28;45551;-57
2023/05/30 11:16:25;;;;;;;;;14.33;12.00;;;;;20.62;40.82;101388.84;4997325;28;45504;-57
2023/05/30 11:18:54;;;;;;;;;37.33;32.67;;;;;20.65;40.54;101382.44;4997333;28;45521;-55
2023/05/30 11:21:56;;;;;;;;;43.33;37.33;;;;;20.67;40.62;101383.22;4996663;28;45443;-54
2023/05/30 11:24:23;;;;;;;;;26.00;24.33;;;;;20.74;40.58;101384.53;4996636;28;45535;-58